Dati Storici

Data ora Umidita' aria (%) Temperatura aria (°C) Rad globale (W/m²) Gonioanemometro (°) Tacoanemometro (m/s) Pioggia (mm)
22-10-2012 08:40 77.9 % 13.753 130.046 7.824 0.423 0
22-10-2012 08:30 80.2 % 13.534 102.305 196.816 0.168 0
22-10-2012 08:20 81.7 % 12.925 78.835 261.886 0.456 0
22-10-2012 08:10 82.8 % 12.615 54.784 7.222 0.859 0
22-10-2012 08:00 83.7 % 12.555 32.347 19.574 0.399 0
22-10-2012 07:50 84.3 % 12.417 14.176 355.552 0.546 0
22-10-2012 07:40 84.6 % 12.393 7.146 27.056 0.666 0
22-10-2012 07:30 85.2 % 12.313 3.136 1.214 0.851 0
22-10-2012 07:20 86.2 % 12.229 0.93 348.24 1.12 0
22-10-2012 07:10 86.9 % 12.051 0.712 331.959 0.293 0
22-10-2012 07:00 87.8 % 11.994 0.135 8.783 0.887 0
22-10-2012 06:50 88.7 % 11.906 0.443 6.647 1.082 0
22-10-2012 06:40 89.7 % 11.828 0.533 346.408 1.488 0
22-10-2012 06:30 90.8 % 11.591 0.776 329.661 0.969 0
22-10-2012 06:20 91.4 % 11.372 0.891 337.936 0.749 0
22-10-2012 06:10 90.8 % 11.231 0.775 273.914 0.179 0
22-10-2012 06:00 90.2 % 11.326 0.737 244.858 0.256 0
22-10-2012 05:50 89.5 % 11.449 0.634 228.487 0.388 0
22-10-2012 05:40 88.8 % 11.696 0.506 254.47 0.435 0
22-10-2012 05:30 89.1 % 11.951 0.57 300.615 1.01 0

I dati sono presentati in modo automatico a scopo informativo. In seguito a verifica i dati possono subire modifiche o essere invalidati e non riportati negli archivi definitivi.